Time;durP1;ratioP1;P1;durP2;ratioP2;P2;SDS_P1;SDS_P2;PMS_P1;PMS_P2;Temp;Humidity;BMP_temperature;BMP_pressure;BME280_temperature;BME280_humidity;BME280_pressure;Samples;Min_cycle;Max_cycle;Signal;HPM_P1;HPM_P2
2023/10/19 00:00:50;;;;;;;27.02;14.57;;;;;;;;;;5031434;28;20050;-68
2023/10/19 00:03:17;;;;;;;32.22;15.32;;;;;;;;;;5046291;28;20051;-69
2023/10/19 00:05:45;;;;;;;25.13;13.88;;;;;;;;;;5040110;28;20057;-69
2023/10/19 00:08:20;;;;;;;24.13;13.57;;;;;;;;;;5025724;28;20085;-69
2023/10/19 00:10:53;;;;;;;28.30;15.07;;;;;;;;;;5039295;28;20052;-68
2023/10/19 00:13:20;;;;;;;28.40;15.43;;;;;;;;;;5046696;28;20319;-69
2023/10/19 00:15:48;;;;;;;33.95;14.07;;;;;;;;;;5040690;28;20057;-69
2023/10/19 00:23:13;;;;;;;28.23;14.07;;;;;;;;;;5045923;28;20076;-68
2023/10/19 00:25:41;;;;;;;28.10;13.63;;;;;;;;;;5035863;28;20124;-70
2023/10/19 00:28:08;;;;;;;22.45;12.93;;;;;;;;;;5025940;28;20130;-70
2023/10/19 00:30:37;;;;;;;28.35;15.00;;;;;;;;;;5030376;28;20518;-70
2023/10/19 00:33:04;;;;;;;26.20;13.57;;;;;;;;;;5027687;28;20057;-69
2023/10/19 00:35:41;;;;;;;24.98;13.57;;;;;;;;;;5035673;28;20067;-71
2023/10/19 00:40:53;;;;;;;24.38;14.02;;;;;;;;;;5045954;28;20722;-70
2023/10/19 00:43:33;;;;;;;26.17;15.02;;;;;;;;;;5061414;28;20049;-69
2023/10/19 00:46:08;;;;;;;29.63;14.98;;;;;;;;;;5040635;28;20053;-68
2023/10/19 00:48:35;;;;;;;24.95;14.65;;;;;;;;;;5045575;28;20095;-71
2023/10/19 00:51:09;;;;;;;28.55;14.88;;;;;;;;;;5046073;28;20088;-69
2023/10/19 00:53:37;;;;;;;27.60;14.65;;;;;;;;;;5046018;28;20413;-70
2023/10/19 00:56:06;;;;;;;25.65;14.85;;;;;;;;;;5045386;28;20543;-69
2023/10/19 00:58:35;;;;;;;25.67;14.70;;;;;;;;;;5045482;28;20049;-71
2023/10/19 01:01:05;;;;;;;27.60;14.85;;;;;;;;;;5031909;28;20045;-69
2023/10/19 01:03:36;;;;;;;26.58;15.18;;;;;;;;;;5025906;28;20046;-71
2023/10/19 01:06:09;;;;;;;30.42;15.15;;;;;;;;;;5027127;28;20060;-68
2023/10/19 01:08:41;;;;;;;27.75;14.93;;;;;;;;;;5025499;28;20049;-70
2023/10/19 01:11:11;;;;;;;25.02;14.63;;;;;;;;;;5039540;28;20151;-71
2023/10/19 01:13:38;;;;;;;24.52;13.90;;;;;;;;;;5033010;28;20049;-69
2023/10/19 01:16:04;;;;;;;28.45;15.88;;;;;;;;;;5045287;28;20743;-69
2023/10/19 01:18:32;;;;;;;26.15;14.57;;;;;;;;;;5044965;28;20049;-68
2023/10/19 01:21:02;;;;;;;28.73;13.95;;;;;;;;;;5036067;28;20489;-69
2023/10/19 01:23:28;;;;;;;26.98;14.00;;;;;;;;;;5035349;28;20087;-69
2023/10/19 01:28:47;;;;;;;31.10;15.07;;;;;;;;;;5024873;28;20050;-69
2023/10/19 01:31:30;;;;;;;24.80;14.10;;;;;;;;;;5031672;28;20134;-70
2023/10/19 01:33:58;;;;;;;27.05;15.15;;;;;;;;;;5045891;28;20630;-69
2023/10/19 01:36:25;;;;;;;26.02;14.20;;;;;;;;;;5049383;28;20052;-69
2023/10/19 01:38:57;;;;;;;30.63;15.85;;;;;;;;;;5037007;28;20065;-69
2023/10/19 01:41:24;;;;;;;37.40;16.13;;;;;;;;;;5039073;28;20057;-70
2023/10/19 01:43:54;;;;;;;31.20;16.00;;;;;;;;;;5049284;28;20109;-70
2023/10/19 01:46:21;;;;;;;28.65;14.73;;;;;;;;;;5048784;28;20045;-70
2023/10/19 01:48:53;;;;;;;27.85;15.15;;;;;;;;;;5048714;28;20056;-71
2023/10/19 01:51:20;;;;;;;28.85;15.68;;;;;;;;;;5044095;28;20045;-69
2023/10/19 01:53:47;;;;;;;28.77;15.40;;;;;;;;;;5048784;28;20041;-69
2023/10/19 01:56:14;;;;;;;29.17;15.80;;;;;;;;;;5049070;28;20065;-70
2023/10/19 01:58:42;;;;;;;25.88;15.10;;;;;;;;;;5048644;28;20051;-70
2023/10/19 02:03:42;;;;;;;31.05;17.00;;;;;;;;;;5048712;28;20127;-68
2023/10/19 02:06:19;;;;;;;29.13;14.90;;;;;;;;;;5046078;28;20048;-69
2023/10/19 02:08:56;;;;;;;33.40;16.42;;;;;;;;;;5048359;28;20045;-69
2023/10/19 02:11:23;;;;;;;27.33;15.23;;;;;;;;;;5032691;28;20108;-68
2023/10/19 02:13:50;;;;;;;33.08;15.07;;;;;;;;;;5038619;28;20123;-70
2023/10/19 02:16:21;;;;;;;30.95;15.40;;;;;;;;;;5032524;28;20465;-70
2023/10/19 02:18:49;;;;;;;25.98;15.40;;;;;;;;;;5028400;28;20158;-70
2023/10/19 02:21:21;;;;;;;28.63;15.07;;;;;;;;;;5029388;28;20247;-69
2023/10/19 02:23:50;;;;;;;24.58;15.05;;;;;;;;;;5041357;28;20042;-68
2023/10/19 02:26:19;;;;;;;28.13;15.30;;;;;;;;;;5028614;28;20172;-68
2023/10/19 02:28:46;;;;;;;28.42;14.82;;;;;;;;;;5028006;28;20050;-69
2023/10/19 02:31:19;;;;;;;28.17;15.52;;;;;;;;;;5043389;28;20523;-68
2023/10/19 02:33:46;;;;;;;28.83;16.20;;;;;;;;;;5048617;28;20674;-67
2023/10/19 02:36:15;;;;;;;26.67;14.70;;;;;;;;;;5042320;28;20088;-68
2023/10/19 02:38:48;;;;;;;27.35;14.75;;;;;;;;;;5044203;28;20045;-69
2023/10/19 02:41:15;;;;;;;26.83;15.13;;;;;;;;;;5052975;28;20056;-71
2023/10/19 02:43:45;;;;;;;38.30;15.77;;;;;;;;;;5047410;28;20052;-73
2023/10/19 02:46:16;;;;;;;27.73;14.63;;;;;;;;;;5045881;28;20119;-69
2023/10/19 02:48:49;;;;;;;29.88;16.60;;;;;;;;;;5047257;28;20076;-68
2023/10/19 02:51:19;;;;;;;34.53;16.58;;;;;;;;;;5039966;28;20387;-70
2023/10/19 02:53:45;;;;;;;28.23;14.73;;;;;;;;;;5047552;28;20080;-69
2023/10/19 02:56:12;;;;;;;33.00;16.55;;;;;;;;;;5046117;28;20501;-69
2023/10/19 02:58:43;;;;;;;26.48;14.60;;;;;;;;;;5027793;28;20046;-68
2023/10/19 03:01:14;;;;;;;30.70;15.00;;;;;;;;;;5028101;28;20041;-69
2023/10/19 03:03:43;;;;;;;39.00;15.88;;;;;;;;;;5031784;28;20045;-70
2023/10/19 03:06:09;;;;;;;30.98;16.63;;;;;;;;;;5038139;28;20174;-69
2023/10/19 03:08:36;;;;;;;30.67;16.08;;;;;;;;;;5047395;28;20492;-69
2023/10/19 03:11:07;;;;;;;32.30;16.52;;;;;;;;;;5048738;28;20076;-70
2023/10/19 03:13:33;;;;;;;27.95;15.05;;;;;;;;;;5027929;28;20050;-69
2023/10/19 03:16:07;;;;;;;26.92;15.57;;;;;;;;;;5031238;28;20497;-69
2023/10/19 03:18:34;;;;;;;30.75;16.50;;;;;;;;;;5047356;28;20490;-69
2023/10/19 03:21:04;;;;;;;29.95;15.85;;;;;;;;;;5047087;28;20190;-70
2023/10/19 03:23:34;;;;;;;28.73;15.45;;;;;;;;;;5047312;28;20125;-69
2023/10/19 03:28:46;;;;;;;28.08;15.02;;;;;;;;;;5047347;28;20128;-70
2023/10/19 03:31:17;;;;;;;29.13;15.15;;;;;;;;;;5046924;28;20397;-70
2023/10/19 03:33:48;;;;;;;30.48;16.45;;;;;;;;;;5037472;28;20049;-69
2023/10/19 03:36:14;;;;;;;32.25;16.13;;;;;;;;;;5033499;28;20115;-68
2023/10/19 03:38:41;;;;;;;28.65;14.48;;;;;;;;;;5029716;28;20049;-71
2023/10/19 03:41:08;;;;;;;26.48;15.27;;;;;;;;;;5041595;28;20076;-70
2023/10/19 03:43:40;;;;;;;34.83;16.90;;;;;;;;;;5046623;28;20651;-70
2023/10/19 03:48:51;;;;;;;28.27;15.73;;;;;;;;;;5038256;28;20517;-69
2023/10/19 03:51:18;;;;;;;29.45;15.65;;;;;;;;;;5030579;28;20132;-69
2023/10/19 03:53:48;;;;;;;32.80;15.25;;;;;;;;;;5026841;28;20081;-68
2023/10/19 03:56:17;;;;;;;36.38;16.45;;;;;;;;;;5041609;28;20088;-69
2023/10/19 03:58:47;;;;;;;37.92;16.63;;;;;;;;;;5046277;28;20129;-70
2023/10/19 04:01:16;;;;;;;29.77;16.08;;;;;;;;;;5031720;28;20533;-70
2023/10/19 04:03:43;;;;;;;32.28;16.17;;;;;;;;;;5027300;28;20103;-69
2023/10/19 04:06:14;;;;;;;31.00;16.70;;;;;;;;;;5031462;28;20169;-69
2023/10/19 04:08:42;;;;;;;38.05;17.55;;;;;;;;;;5041006;28;20044;-70
2023/10/19 04:11:18;;;;;;;30.60;16.63;;;;;;;;;;5041091;28;20473;-69
2023/10/19 04:13:45;;;;;;;36.20;17.05;;;;;;;;;;5046766;28;20060;-68
2023/10/19 04:16:12;;;;;;;30.20;15.82;;;;;;;;;;5031367;28;20827;-70
2023/10/19 04:18:43;;;;;;;40.97;17.55;;;;;;;;;;5026424;28;20045;-69
2023/10/19 04:21:10;;;;;;;38.20;17.77;;;;;;;;;;5041091;28;20132;-69
2023/10/19 04:23:36;;;;;;;38.05;17.20;;;;;;;;;;5046603;28;20080;-69
2023/10/19 04:26:10;;;;;;;33.33;17.58;;;;;;;;;;5044658;28;20057;-69
2023/10/19 04:28:41;;;;;;;33.97;17.70;;;;;;;;;;5045821;28;20061;-69
2023/10/19 04:31:13;;;;;;;32.28;16.45;;;;;;;;;;5050846;28;20803;-71
2023/10/19 04:33:39;;;;;;;;;;;;;;;;;;5035082;28;20136;-68
2023/10/19 04:36:09;;;;;;;34.42;17.27;;;;;;;;;;5040534;28;19925;-69
2023/10/19 04:38:36;;;;;;;34.13;16.13;;;;;;;;;;5040384;28;20049;-68
2023/10/19 04:41:10;;;;;;;37.50;17.67;;;;;;;;;;5061315;28;20059;-70
2023/10/19 04:43:37;;;;;;;32.75;17.15;;;;;;;;;;5045004;28;20458;-72
2023/10/19 04:46:08;;;;;;;35.70;17.35;;;;;;;;;;5040184;28;20080;-68
2023/10/19 04:48:35;;;;;;;32.83;16.52;;;;;;;;;;5045710;28;20118;-69
2023/10/19 04:51:03;;;;;;;34.10;17.92;;;;;;;;;;5031896;28;20045;-71
2023/10/19 04:53:31;;;;;;;29.45;16.60;;;;;;;;;;5026049;28;20075;-71
2023/10/19 04:55:57;;;;;;;35.50;18.92;;;;;;;;;;5026516;28;20053;-68
2023/10/19 04:58:24;;;;;;;37.17;17.90;;;;;;;;;;5026045;28;20046;-70
2023/10/19 05:00:50;;;;;;;33.88;17.75;;;;;;;;;;5037597;28;20049;-71
2023/10/19 05:03:18;;;;;;;37.78;19.50;;;;;;;;;;5042377;28;20057;-70
2023/10/19 05:05:45;;;;;;;41.60;19.73;;;;;;;;;;5046205;28;20159;-72
2023/10/19 05:08:11;;;;;;;38.95;19.38;;;;;;;;;;5037801;28;20434;-70
2023/10/19 05:10:38;;;;;;;34.80;20.10;;;;;;;;;;5048550;28;20110;-70
2023/10/19 05:13:04;;;;;;;34.78;19.75;;;;;;;;;;5039615;28;20047;-68
2023/10/19 05:15:33;;;;;;;46.67;21.27;;;;;;;;;;5049582;28;20501;-70
2023/10/19 05:18:00;;;;;;;43.03;20.48;;;;;;;;;;5042698;28;20051;-70
2023/10/19 05:20:27;;;;;;;38.20;21.42;;;;;;;;;;5050147;28;20084;-71
2023/10/19 05:22:53;;;;;;;39.38;20.38;;;;;;;;;;5049849;28;20128;-73
2023/10/19 05:25:20;;;;;;;43.65;20.70;;;;;;;;;;5048063;28;20044;-71
2023/10/19 05:27:46;;;;;;;42.20;21.83;;;;;;;;;;5049364;28;20052;-71
2023/10/19 05:30:13;;;;;;;40.72;20.70;;;;;;;;;;5049259;28;20076;-70
2023/10/19 05:32:39;;;;;;;40.55;20.65;;;;;;;;;;5046719;28;20080;-71
2023/10/19 05:35:06;;;;;;;39.55;22.23;;;;;;;;;;5033214;28;20099;-70
2023/10/19 05:37:33;;;;;;;43.97;22.98;;;;;;;;;;5029134;28;20049;-71
2023/10/19 05:40:00;;;;;;;44.85;21.83;;;;;;;;;;5044221;28;20104;-71
2023/10/19 05:42:29;;;;;;;46.28;22.30;;;;;;;;;;5049169;28;20938;-70
2023/10/19 05:44:55;;;;;;;43.25;22.90;;;;;;;;;;5049079;28;20128;-70
2023/10/19 05:47:22;;;;;;;41.75;22.85;;;;;;;;;;5043191;28;20049;-71
2023/10/19 05:49:48;;;;;;;45.25;23.13;;;;;;;;;;5049113;28;20052;-71
2023/10/19 05:52:15;;;;;;;47.30;24.50;;;;;;;;;;5049300;28;20056;-70
2023/10/19 05:54:42;;;;;;;39.92;22.60;;;;;;;;;;5048901;28;20614;-72
2023/10/19 05:57:09;;;;;;;40.15;23.52;;;;;;;;;;5048744;28;20098;-72
2023/10/19 05:59:35;;;;;;;45.30;22.70;;;;;;;;;;5048465;28;20052;-71
2023/10/19 06:02:02;;;;;;;44.63;23.52;;;;;;;;;;5049069;28;20124;-70
2023/10/19 06:04:28;;;;;;;45.50;22.70;;;;;;;;;;5048583;28;20479;-72
2023/10/19 06:06:56;;;;;;;44.95;24.23;;;;;;;;;;5036188;28;20405;-70
2023/10/19 06:09:29;;;;;;;52.05;24.40;;;;;;;;;;5046767;28;20056;-71
2023/10/19 06:11:55;;;;;;;51.00;26.13;;;;;;;;;;5037271;28;20099;-70
2023/10/19 06:14:22;;;;;;;44.63;24.00;;;;;;;;;;5047510;28;20686;-71
2023/10/19 06:16:48;;;;;;;45.85;25.15;;;;;;;;;;5059769;28;20661;-73
2023/10/19 06:19:16;;;;;;;46.92;22.05;;;;;;;;;;5028276;28;20107;-70
2023/10/19 06:21:42;;;;;;;43.30;22.60;;;;;;;;;;5046405;28;20080;-69
2023/10/19 06:24:14;;;;;;;49.58;24.05;;;;;;;;;;5048369;28;20433;-69
2023/10/19 06:26:40;;;;;;;;;;;;;;;;;;5028651;28;20620;-68
2023/10/19 06:29:07;;;;;;;40.80;22.90;;;;;;;;;;5028868;28;19953;-72
2023/10/19 06:31:33;;;;;;;49.45;25.73;;;;;;;;;;5032841;28;20083;-70
2023/10/19 06:34:00;;;;;;;47.17;24.67;;;;;;;;;;5033673;28;20096;-70
2023/10/19 06:36:29;;;;;;;45.72;25.27;;;;;;;;;;5029742;28;20068;-70
2023/10/19 06:38:55;;;;;;;47.63;23.40;;;;;;;;;;5030054;28;20057;-71
2023/10/19 06:41:22;;;;;;;45.20;24.52;;;;;;;;;;5046285;28;20368;-70
2023/10/19 06:43:48;;;;;;;53.42;25.80;;;;;;;;;;5048553;28;20098;-70
2023/10/19 06:46:15;;;;;;;50.08;26.40;;;;;;;;;;5034684;28;20049;-71
2023/10/19 06:48:42;;;;;;;48.42;25.52;;;;;;;;;;5047663;28;20057;-70
2023/10/19 06:51:09;;;;;;;44.85;25.00;;;;;;;;;;5047615;28;20118;-71
2023/10/19 06:53:36;;;;;;;53.40;25.85;;;;;;;;;;5047443;28;20041;-72
2023/10/19 06:56:04;;;;;;;46.70;25.42;;;;;;;;;;5047699;28;20057;-71
2023/10/19 06:58:30;;;;;;;42.10;24.52;;;;;;;;;;5047474;28;20052;-70
2023/10/19 07:00:59;;;;;;;40.33;23.95;;;;;;;;;;5047596;28;20049;-72
2023/10/19 07:03:28;;;;;;;41.97;21.65;;;;;;;;;;5047664;28;20041;-70
2023/10/19 07:05:55;;;;;;;42.60;22.90;;;;;;;;;;5034745;28;20076;-71
2023/10/19 07:08:22;;;;;;;44.67;24.13;;;;;;;;;;5027311;28;20099;-70
2023/10/19 07:10:49;;;;;;;49.83;23.88;;;;;;;;;;5039105;28;20130;-70
2023/10/19 07:13:16;;;;;;;47.25;23.92;;;;;;;;;;5029892;28;20054;-70
2023/10/19 07:15:46;;;;;;;47.67;25.65;;;;;;;;;;5038397;28;20674;-72
2023/10/19 07:18:16;;;;;;;55.80;24.95;;;;;;;;;;5037899;28;20568;-68
2023/10/19 07:20:43;;;;;;;45.30;23.67;;;;;;;;;;5034189;28;20144;-71
2023/10/19 07:23:10;;;;;;;49.83;26.75;;;;;;;;;;5041937;28;20161;-72
2023/10/19 07:25:43;;;;;;;43.17;24.35;;;;;;;;;;5030430;28;20609;-69
2023/10/19 07:28:10;;;;;;;51.35;24.48;;;;;;;;;;5026691;28;20584;-71
2023/10/19 07:30:37;;;;;;;46.30;24.23;;;;;;;;;;5037929;28;20135;-72
2023/10/19 07:33:05;;;;;;;51.78;26.30;;;;;;;;;;5045333;28;20053;-71
2023/10/19 07:35:34;;;;;;;53.65;26.85;;;;;;;;;;5046541;28;20056;-70
2023/10/19 07:38:03;;;;;;;49.50;25.73;;;;;;;;;;5046656;28;20586;-71
2023/10/19 07:40:30;;;;;;;50.05;27.70;;;;;;;;;;5037646;28;20045;-69
2023/10/19 07:42:57;;;;;;;50.85;24.05;;;;;;;;;;5047687;28;20040;-71
2023/10/19 07:45:23;;;;;;;43.40;23.75;;;;;;;;;;5048140;28;20068;-70
2023/10/19 07:47:51;;;;;;;48.97;25.75;;;;;;;;;;5046642;28;20053;-70
2023/10/19 07:50:19;;;;;;;50.72;25.77;;;;;;;;;;5043036;28;20582;-70
2023/10/19 07:52:52;;;;;;;46.78;26.23;;;;;;;;;;5027328;28;20099;-68
2023/10/19 07:55:20;;;;;;;48.50;25.70;;;;;;;;;;5026613;28;20065;-68
2023/10/19 07:57:50;;;;;;;52.25;24.92;;;;;;;;;;5040032;28;20085;-68
2023/10/19 08:00:17;;;;;;;47.50;25.42;;;;;;;;;;5046338;28;20473;-68
2023/10/19 08:02:47;;;;;;;51.75;26.05;;;;;;;;;;5046638;28;20068;-68
2023/10/19 08:05:14;;;;;;;53.88;26.85;;;;;;;;;;5046730;28;20072;-68
2023/10/19 08:07:43;;;;;;;54.35;25.90;;;;;;;;;;5027150;28;20053;-70
2023/10/19 08:10:11;;;;;;;47.33;26.15;;;;;;;;;;5033010;28;20044;-67
2023/10/19 08:12:41;;;;;;;46.35;26.33;;;;;;;;;;5046677;28;20118;-68
2023/10/19 08:15:11;;;;;;;53.47;25.83;;;;;;;;;;5040125;28;20060;-69
2023/10/19 08:17:47;;;;;;;49.35;26.33;;;;;;;;;;5034781;28;20049;-72
2023/10/19 08:20:22;;;;;;;52.22;26.13;;;;;;;;;;5046266;28;20128;-68
2023/10/19 08:22:54;;;;;;;42.28;24.80;;;;;;;;;;5046387;28;20045;-68
2023/10/19 08:25:20;;;;;;;50.80;26.60;;;;;;;;;;5036699;28;20056;-73
2023/10/19 08:27:51;;;;;;;50.25;26.48;;;;;;;;;;5045752;28;20489;-69
2023/10/19 08:30:18;;;;;;;51.28;26.55;;;;;;;;;;5038682;28;20061;-70
2023/10/19 08:32:51;;;;;;;54.70;26.52;;;;;;;;;;5037705;28;20530;-68
2023/10/19 08:35:25;;;;;;;46.72;24.88;;;;;;;;;;5033246;28;20045;-71
2023/10/19 08:37:52;;;;;;;45.60;24.55;;;;;;;;;;5032638;28;20276;-69
2023/10/19 08:40:19;;;;;;;46.78;23.25;;;;;;;;;;5029691;28;20061;-68
2023/10/19 08:42:46;;;;;;;53.58;26.10;;;;;;;;;;5031437;28;20140;-71
2023/10/19 08:45:13;;;;;;;48.40;24.55;;;;;;;;;;5028311;28;20138;-69
2023/10/19 08:47:56;;;;;;;54.10;26.85;;;;;;;;;;5045910;28;20064;-69
2023/10/19 08:50:26;;;;;;;45.83;24.17;;;;;;;;;;5046127;28;20056;-68
2023/10/19 08:52:53;;;;;;;49.58;25.65;;;;;;;;;;5046085;28;20130;-68
2023/10/19 08:55:20;;;;;;;44.17;25.80;;;;;;;;;;5045378;28;20110;-70
2023/10/19 08:58:05;;;;;;;44.33;26.70;;;;;;;;;;5025778;28;20049;-71
2023/10/19 09:00:54;;;;;;;49.90;26.27;;;;;;;;;;5025749;28;20145;-71
2023/10/19 09:03:22;;;;;;;59.65;28.17;;;;;;;;;;5026418;28;20128;-69
2023/10/19 09:05:49;;;;;;;41.85;24.25;;;;;;;;;;5034421;28;20056;-69
2023/10/19 09:08:17;;;;;;;46.05;25.35;;;;;;;;;;5042228;28;20894;-70
2023/10/19 09:10:45;;;;;;;48.75;28.25;;;;;;;;;;5045769;28;20053;-68
2023/10/19 09:13:14;;;;;;;42.70;24.90;;;;;;;;;;5045789;28;20104;-70
2023/10/19 09:15:41;;;;;;;53.22;27.75;;;;;;;;;;5034660;28;20434;-71
2023/10/19 09:18:14;;;;;;;53.25;27.13;;;;;;;;;;5042911;28;20064;-70
2023/10/19 09:20:42;;;;;;;53.53;26.38;;;;;;;;;;5042058;28;20103;-70
2023/10/19 09:23:08;;;;;;;52.92;29.02;;;;;;;;;;5045890;28;20061;-69
2023/10/19 09:25:35;;;;;;;51.80;28.67;;;;;;;;;;5044371;28;20128;-70
2023/10/19 09:28:05;;;;;;;53.78;28.38;;;;;;;;;;5045298;28;20516;-70
2023/10/19 09:30:32;;;;;;;51.15;27.13;;;;;;;;;;5044087;28;20047;-69
2023/10/19 09:32:58;;;;;;;52.78;28.90;;;;;;;;;;5045627;28;20087;-70
2023/10/19 09:35:31;;;;;;;47.53;26.73;;;;;;;;;;5037025;28;20053;-69
2023/10/19 09:37:57;;;;;;;56.10;28.48;;;;;;;;;;5025325;28;20119;-70
2023/10/19 09:40:24;;;;;;;55.05;28.33;;;;;;;;;;5025602;28;20056;-69
2023/10/19 09:42:53;;;;;;;58.58;30.40;;;;;;;;;;5025891;28;20053;-70
2023/10/19 09:45:24;;;;;;;56.35;30.15;;;;;;;;;;5025247;28;20084;-70
2023/10/19 09:47:52;;;;;;;51.83;29.70;;;;;;;;;;5034075;28;20046;-68
2023/10/19 09:50:18;;;;;;;49.40;27.42;;;;;;;;;;5030090;28;20143;-69
2023/10/19 09:52:45;;;;;;;57.70;28.90;;;;;;;;;;5045523;28;20137;-71
2023/10/19 09:55:28;;;;;;;51.72;28.83;;;;;;;;;;5045769;28;20147;-70
2023/10/19 09:58:07;;;;;;;54.47;29.92;;;;;;;;;;5048582;28;20620;-71
2023/10/19 10:00:34;;;;;;;50.67;27.67;;;;;;;;;;5035947;28;20080;-71
2023/10/19 10:03:05;;;;;;;55.00;29.80;;;;;;;;;;5047818;28;20045;-70
2023/10/19 10:05:37;;;;;;;59.58;31.13;;;;;;;;;;5042735;28;20110;-73
2023/10/19 10:08:22;;;;;;;54.35;29.23;;;;;;;;;;5044998;28;20084;-72
2023/10/19 10:10:52;;;;;;;53.30;28.77;;;;;;;;;;5039903;28;20060;-70
2023/10/19 10:13:24;;;;;;;56.45;28.98;;;;;;;;;;5039620;28;20107;-70
2023/10/19 10:15:54;;;;;;;52.67;28.77;;;;;;;;;;5039156;28;20099;-70
2023/10/19 10:18:23;;;;;;;53.47;30.33;;;;;;;;;;5040112;28;20489;-70
2023/10/19 10:21:09;;;;;;;49.90;29.33;;;;;;;;;;5055206;28;20049;-70
2023/10/19 10:23:49;;;;;;;49.90;28.45;;;;;;;;;;5028743;28;20059;-69
2023/10/19 10:26:17;;;;;;;56.80;29.58;;;;;;;;;;5029329;28;20132;-69
2023/10/19 10:28:48;;;;;;;54.42;30.33;;;;;;;;;;5028292;28;20045;-69
2023/10/19 10:31:24;;;;;;;51.72;28.75;;;;;;;;;;5043474;28;20127;-69
2023/10/19 10:33:52;;;;;;;49.53;27.05;;;;;;;;;;5048379;28;20051;-71
2023/10/19 10:36:19;;;;;;;56.13;28.48;;;;;;;;;;5037516;28;20060;-69
2023/10/19 10:38:46;;;;;;;53.88;29.73;;;;;;;;;;5040308;28;20049;-68
2023/10/19 10:41:19;;;;;;;49.63;27.95;;;;;;;;;;5035520;28;20132;-70
2023/10/19 10:43:50;;;;;;;50.78;28.00;;;;;;;;;;5028892;28;20068;-69
2023/10/19 10:46:16;;;;;;;;;;;;;;;;;;5037649;28;20080;-68
2023/10/19 10:48:43;;;;;;;47.50;28.30;;;;;;;;;;5032991;28;19975;-69
2023/10/19 10:51:19;;;;;;;59.47;30.48;;;;;;;;;;5038773;28;20049;-70
2023/10/19 10:53:46;;;;;;;53.17;27.60;;;;;;;;;;5027825;28;20042;-68
2023/10/19 10:56:13;;;;;;;46.40;27.15;;;;;;;;;;5035239;28;20156;-69
2023/10/19 10:58:41;;;;;;;54.40;28.63;;;;;;;;;;5047492;28;20104;-69
2023/10/19 11:01:07;;;;;;;48.70;28.27;;;;;;;;;;5040537;28;20072;-69
2023/10/19 11:03:34;;;;;;;48.33;27.73;;;;;;;;;;5039066;28;20418;-68
2023/10/19 11:06:04;;;;;;;51.67;27.88;;;;;;;;;;5033806;28;20140;-69
2023/10/19 11:08:32;;;;;;;55.88;28.85;;;;;;;;;;5039510;28;20045;-68
2023/10/19 11:11:07;;;;;;;52.33;27.95;;;;;;;;;;5037381;28;20041;-68
2023/10/19 11:13:35;;;;;;;53.75;28.17;;;;;;;;;;5032873;28;20046;-72
2023/10/19 11:16:02;;;;;;;48.55;29.23;;;;;;;;;;5040687;28;20045;-70
2023/10/19 11:18:32;;;;;;;54.40;30.00;;;;;;;;;;5032268;28;20051;-68
2023/10/19 11:21:04;;;;;;;50.75;28.27;;;;;;;;;;5040157;28;20055;-68
2023/10/19 11:23:44;;;;;;;50.90;28.08;;;;;;;;;;5035921;28;20045;-69
2023/10/19 11:26:12;;;;;;;47.78;27.83;;;;;;;;;;5043239;28;20561;-68
2023/10/19 11:28:43;;;;;;;49.13;27.88;;;;;;;;;;5042584;28;20485;-68
2023/10/19 11:31:17;;;;;;;50.20;26.50;;;;;;;;;;5032867;28;20045;-68
2023/10/19 11:33:44;;;;;;;47.20;27.10;;;;;;;;;;5027405;28;20463;-68
2023/10/19 11:36:14;;;;;;;47.35;26.73;;;;;;;;;;5029250;28;20048;-68
2023/10/19 11:38:44;;;;;;;47.78;26.80;;;;;;;;;;5026538;28;20041;-68
2023/10/19 11:41:13;;;;;;;48.90;28.48;;;;;;;;;;5037001;28;20130;-69
2023/10/19 11:43:40;;;;;;;47.85;29.23;;;;;;;;;;5047083;28;20145;-68
2023/10/19 11:46:07;;;;;;;51.58;28.33;;;;;;;;;;5033673;28;20176;-65
2023/10/19 11:48:35;;;;;;;48.22;26.63;;;;;;;;;;5046054;28;20753;-67
2023/10/19 11:51:03;;;;;;;46.13;27.17;;;;;;;;;;5046822;28;20077;-67
2023/10/19 11:53:33;;;;;;;50.58;27.70;;;;;;;;;;5046988;28;20132;-71
2023/10/19 11:56:03;;;;;;;52.83;28.30;;;;;;;;;;5045690;28;20488;-71
2023/10/19 11:58:32;;;;;;;50.05;28.98;;;;;;;;;;5045976;28;20110;-71
2023/10/19 12:00:59;;;;;;;53.10;28.58;;;;;;;;;;5045397;28;20076;-71
2023/10/19 12:03:26;;;;;;;47.70;27.95;;;;;;;;;;5046969;28;20574;-74
2023/10/19 12:05:56;;;;;;;47.60;26.63;;;;;;;;;;5037941;28;20048;-74
2023/10/19 12:08:23;;;;;;;45.08;27.30;;;;;;;;;;5026261;28;20050;-69
2023/10/19 12:10:50;;;;;;;46.65;26.40;;;;;;;;;;5036823;28;20053;-74
2023/10/19 12:13:17;;;;;;;48.90;26.85;;;;;;;;;;5028398;28;20053;-74
2023/10/19 12:15:51;;;;;;;53.67;28.25;;;;;;;;;;5037219;28;20138;-75
2023/10/19 12:18:19;;;;;;;48.63;28.60;;;;;;;;;;5035736;28;20053;-73
2023/10/19 12:20:45;;;;;;;44.88;26.40;;;;;;;;;;5034951;28;20128;-76
2023/10/19 12:23:12;;;;;;;49.17;26.55;;;;;;;;;;5026723;28;20568;-76
2023/10/19 12:25:39;;;;;;;45.85;24.75;;;;;;;;;;5029663;28;20053;-76
2023/10/19 12:28:24;;;;;;;47.85;25.85;;;;;;;;;;5026864;28;20466;-74
2023/10/19 12:30:51;;;;;;;45.30;26.67;;;;;;;;;;5026887;28;20120;-74
2023/10/19 12:33:19;;;;;;;49.10;26.38;;;;;;;;;;5031733;28;20045;-73
2023/10/19 12:35:51;;;;;;;45.50;24.58;;;;;;;;;;5035483;28;20060;-68
2023/10/19 12:38:19;;;;;;;45.15;25.70;;;;;;;;;;5039983;28;20140;-68
2023/10/19 12:40:47;;;;;;;47.63;25.80;;;;;;;;;;5037881;28;20037;-69
2023/10/19 12:43:14;;;;;;;47.70;25.50;;;;;;;;;;5047042;28;20091;-73
2023/10/19 12:45:41;;;;;;;46.60;24.55;;;;;;;;;;5046194;28;20049;-68
2023/10/19 12:48:10;;;;;;;45.72;25.40;;;;;;;;;;5045021;28;20045;-67
2023/10/19 12:50:37;;;;;;;44.42;25.42;;;;;;;;;;5039367;28;20053;-69
2023/10/19 12:53:04;;;;;;;46.58;24.23;;;;;;;;;;5046509;28;20137;-73
2023/10/19 12:55:30;;;;;;;45.13;26.17;;;;;;;;;;5045599;28;20064;-68
2023/10/19 12:57:57;;;;;;;51.80;25.15;;;;;;;;;;5045520;28;20068;-70
2023/10/19 13:00:25;;;;;;;43.08;24.90;;;;;;;;;;5041361;28;20045;-70
2023/10/19 13:02:59;;;;;;;44.53;26.30;;;;;;;;;;5027742;28;20140;-68
2023/10/19 13:05:36;;;;;;;53.55;28.70;;;;;;;;;;5025609;28;20533;-66
2023/10/19 13:08:05;;;;;;;42.55;26.40;;;;;;;;;;5041280;28;20478;-69
2023/10/19 13:10:33;;;;;;;51.63;26.52;;;;;;;;;;5032558;28;20049;-71
2023/10/19 13:13:03;;;;;;;53.42;27.88;;;;;;;;;;5046362;28;20049;-70
2023/10/19 13:15:31;;;;;;;;;;;;;;;;;;5046454;28;20057;-68
2023/10/19 13:18:01;;;;;;;51.42;27.52;;;;;;;;;;5045027;28;20321;-66
2023/10/19 13:20:33;;;;;;;49.50;27.30;;;;;;;;;;5039741;28;20158;-66
2023/10/19 13:23:01;;;;;;;50.28;28.92;;;;;;;;;;5039409;28;20095;-68
2023/10/19 13:25:41;;;;;;;57.67;31.02;;;;;;;;;;5044411;28;20376;-65
2023/10/19 13:28:09;;;;;;;58.13;30.40;;;;;;;;;;5043857;28;20064;-68
2023/10/19 13:30:47;;;;;;;55.50;29.92;;;;;;;;;;5029138;28;20125;-64
2023/10/19 13:33:14;;;;;;;58.08;32.35;;;;;;;;;;5039712;28;20049;-66
2023/10/19 13:35:41;;;;;;;59.08;31.63;;;;;;;;;;5039837;28;20052;-66
2023/10/19 13:38:08;;;;;;;60.70;32.55;;;;;;;;;;5048844;28;20457;-65
2023/10/19 13:40:35;;;;;;;59.28;32.75;;;;;;;;;;5049212;28;20052;-66
2023/10/19 13:43:06;;;;;;;54.58;31.52;;;;;;;;;;5035544;28;20110;-64
2023/10/19 13:45:36;;;;;;;55.67;30.77;;;;;;;;;;5038662;28;20387;-64
2023/10/19 13:48:03;;;;;;;57.38;32.25;;;;;;;;;;5051117;28;20065;-66
2023/10/19 13:50:30;;;;;;;58.63;33.03;;;;;;;;;;5037066;28;20389;-64
2023/10/19 13:52:57;;;;;;;56.50;30.30;;;;;;;;;;5029312;28;20670;-65
2023/10/19 13:55:23;;;;;;;59.33;32.03;;;;;;;;;;5038146;28;20437;-64
2023/10/19 13:57:50;;;;;;;61.22;31.98;;;;;;;;;;5045347;28;20141;-67
2023/10/19 14:00:24;;;;;;;54.28;30.27;;;;;;;;;;5041376;28;20397;-63
2023/10/19 14:02:51;;;;;;;54.65;31.55;;;;;;;;;;5034300;28;20073;-61
2023/10/19 14:05:18;;;;;;;58.90;31.33;;;;;;;;;;5041171;28;20413;-64
2023/10/19 14:07:46;;;;;;;60.80;31.15;;;;;;;;;;5047091;28;20065;-62
2023/10/19 14:10:13;;;;;;;59.95;31.73;;;;;;;;;;5043653;28;20497;-63
2023/10/19 14:12:41;;;;;;;62.65;31.25;;;;;;;;;;5048967;28;20049;-67
2023/10/19 14:15:11;;;;;;;60.90;32.00;;;;;;;;;;5041808;28;20046;-69
2023/10/19 14:17:38;;;;;;;58.15;32.42;;;;;;;;;;5043723;28;20136;-70
2023/10/19 14:20:05;;;;;;;59.92;31.67;;;;;;;;;;5047212;28;20045;-69
2023/10/19 14:22:34;;;;;;;67.55;34.47;;;;;;;;;;5051263;28;20060;-70
2023/10/19 14:25:01;;;;;;;61.00;31.23;;;;;;;;;;5039573;28;20049;-68
2023/10/19 14:27:28;;;;;;;60.00;32.25;;;;;;;;;;5039190;28;20129;-68
2023/10/19 14:29:54;;;;;;;58.40;30.63;;;;;;;;;;5032622;28;20382;-69
2023/10/19 14:32:21;;;;;;;58.63;31.58;;;;;;;;;;5047982;28;20208;-72
2023/10/19 14:34:47;;;;;;;61.55;32.78;;;;;;;;;;5040221;28;20144;-70
2023/10/19 14:37:14;;;;;;;59.67;33.17;;;;;;;;;;5038890;28;20512;-71
2023/10/19 14:39:41;;;;;;;61.47;31.98;;;;;;;;;;5030390;28;20132;-70
2023/10/19 14:42:08;;;;;;;64.18;34.22;;;;;;;;;;5035622;28;20141;-68
2023/10/19 14:44:34;;;;;;;59.40;32.60;;;;;;;;;;5029522;28;20152;-70
2023/10/19 14:47:02;;;;;;;61.42;33.42;;;;;;;;;;5048716;28;20052;-70